sensor_id;sensor_type;location;lat;lon;timestamp;P1;durP1;ratioP1;P2;durP2;ratioP2
13849;SDS011;6995;52.618;13.488;2022-07-17T00:02:14;20.77;;;19.47;;
13849;SDS011;6995;52.618;13.488;2022-07-17T00:04:39;21.63;;;19.80;;
13849;SDS011;6995;52.618;13.488;2022-07-17T00:07:05;21.90;;;20.20;;
13849;SDS011;6995;52.618;13.488;2022-07-17T00:09:31;22.67;;;21.17;;
13849;SDS011;6995;52.618;13.488;2022-07-17T00:11:56;21.63;;;19.83;;
13849;SDS011;6995;52.618;13.488;2022-07-17T00:14:22;21.33;;;19.50;;
13849;SDS011;6995;52.618;13.488;2022-07-17T00:16:48;21.67;;;20.13;;
13849;SDS011;6995;52.618;13.488;2022-07-17T00:19:14;22.60;;;21.23;;
13849;SDS011;6995;52.618;13.488;2022-07-17T00:21:40;21.47;;;20.27;;
13849;SDS011;6995;52.618;13.488;2022-07-17T00:24:07;23.87;;;22.50;;
13849;SDS011;6995;52.618;13.488;2022-07-17T00:26:33;21.80;;;20.40;;
13849;SDS011;6995;52.618;13.488;2022-07-17T00:28:59;23.00;;;21.33;;
13849;SDS011;6995;52.618;13.488;2022-07-17T00:31:25;22.27;;;20.87;;
13849;SDS011;6995;52.618;13.488;2022-07-17T00:33:50;22.60;;;21.30;;
13849;SDS011;6995;52.618;13.488;2022-07-17T00:36:16;21.27;;;19.67;;
13849;SDS011;6995;52.618;13.488;2022-07-17T00:38:41;22.93;;;20.90;;
13849;SDS011;6995;52.618;13.488;2022-07-17T00:41:07;20.97;;;19.77;;
13849;SDS011;6995;52.618;13.488;2022-07-17T00:43:33;22.23;;;20.77;;
13849;SDS011;6995;52.618;13.488;2022-07-17T00:45:59;19.37;;;18.20;;
13849;SDS011;6995;52.618;13.488;2022-07-17T00:48:27;19.77;;;18.50;;
13849;SDS011;6995;52.618;13.488;2022-07-17T00:50:53;21.60;;;19.93;;
13849;SDS011;6995;52.618;13.488;2022-07-17T00:53:19;20.97;;;19.53;;
13849;SDS011;6995;52.618;13.488;2022-07-17T00:55:46;21.97;;;20.60;;
13849;SDS011;6995;52.618;13.488;2022-07-17T00:58:20;24.07;;;22.67;;
13849;SDS011;6995;52.618;13.488;2022-07-17T01:00:49;24.17;;;22.70;;
13849;SDS011;6995;52.618;13.488;2022-07-17T01:03:17;22.80;;;21.43;;
13849;SDS011;6995;52.618;13.488;2022-07-17T01:05:45;24.20;;;22.57;;
13849;SDS011;6995;52.618;13.488;2022-07-17T01:08:10;23.90;;;22.43;;
13849;SDS011;6995;52.618;13.488;2022-07-17T01:10:37;22.83;;;21.53;;
13849;SDS011;6995;52.618;13.488;2022-07-17T01:13:03;21.13;;;19.63;;
13849;SDS011;6995;52.618;13.488;2022-07-17T01:15:30;23.40;;;21.80;;
13849;SDS011;6995;52.618;13.488;2022-07-17T01:17:56;21.20;;;19.83;;
13849;SDS011;6995;52.618;13.488;2022-07-17T01:20:23;22.43;;;21.20;;
13849;SDS011;6995;52.618;13.488;2022-07-17T01:22:50;21.43;;;20.13;;
13849;SDS011;6995;52.618;13.488;2022-07-17T01:25:18;22.03;;;20.80;;
13849;SDS011;6995;52.618;13.488;2022-07-17T01:27:46;22.20;;;20.90;;
13849;SDS011;6995;52.618;13.488;2022-07-17T01:30:12;21.20;;;19.80;;
13849;SDS011;6995;52.618;13.488;2022-07-17T01:32:38;21.10;;;19.80;;
13849;SDS011;6995;52.618;13.488;2022-07-17T01:35:05;22.57;;;20.90;;
13849;SDS011;6995;52.618;13.488;2022-07-17T01:37:32;21.27;;;19.70;;
13849;SDS011;6995;52.618;13.488;2022-07-17T01:39:58;19.57;;;18.33;;
13849;SDS011;6995;52.618;13.488;2022-07-17T01:42:24;21.57;;;19.57;;
13849;SDS011;6995;52.618;13.488;2022-07-17T01:44:51;19.77;;;18.40;;
13849;SDS011;6995;52.618;13.488;2022-07-17T01:47:18;21.23;;;19.77;;
13849;SDS011;6995;52.618;13.488;2022-07-17T01:49:48;20.73;;;19.27;;
13849;SDS011;6995;52.618;13.488;2022-07-17T01:52:15;22.57;;;20.70;;
13849;SDS011;6995;52.618;13.488;2022-07-17T01:54:41;19.23;;;18.00;;
13849;SDS011;6995;52.618;13.488;2022-07-17T01:57:07;20.70;;;19.40;;
13849;SDS011;6995;52.618;13.488;2022-07-17T01:59:33;20.80;;;19.50;;
13849;SDS011;6995;52.618;13.488;2022-07-17T02:01:59;19.83;;;18.60;;
13849;SDS011;6995;52.618;13.488;2022-07-17T02:04:25;21.07;;;19.77;;
13849;SDS011;6995;52.618;13.488;2022-07-17T02:06:52;21.10;;;19.93;;
13849;SDS011;6995;52.618;13.488;2022-07-17T02:09:19;22.23;;;20.57;;
13849;SDS011;6995;52.618;13.488;2022-07-17T02:11:46;20.43;;;19.03;;
13849;SDS011;6995;52.618;13.488;2022-07-17T02:14:12;20.70;;;19.20;;
13849;SDS011;6995;52.618;13.488;2022-07-17T02:16:37;20.73;;;19.43;;
13849;SDS011;6995;52.618;13.488;2022-07-17T02:19:03;21.33;;;19.73;;
13849;SDS011;6995;52.618;13.488;2022-07-17T02:21:29;20.57;;;19.33;;
13849;SDS011;6995;52.618;13.488;2022-07-17T02:23:55;21.27;;;19.73;;
13849;SDS011;6995;52.618;13.488;2022-07-17T02:26:20;22.43;;;20.70;;
13849;SDS011;6995;52.618;13.488;2022-07-17T02:28:46;21.43;;;19.90;;
13849;SDS011;6995;52.618;13.488;2022-07-17T02:31:12;21.67;;;20.07;;
13849;SDS011;6995;52.618;13.488;2022-07-17T02:33:37;21.07;;;19.67;;
13849;SDS011;6995;52.618;13.488;2022-07-17T02:36:03;20.23;;;19.00;;
13849;SDS011;6995;52.618;13.488;2022-07-17T02:38:29;19.33;;;17.87;;
13849;SDS011;6995;52.618;13.488;2022-07-17T02:40:55;20.83;;;19.27;;
13849;SDS011;6995;52.618;13.488;2022-07-17T02:43:20;20.67;;;19.37;;
13849;SDS011;6995;52.618;13.488;2022-07-17T02:45:46;20.73;;;19.53;;
13849;SDS011;6995;52.618;13.488;2022-07-17T02:48:11;21.03;;;19.50;;
13849;SDS011;6995;52.618;13.488;2022-07-17T02:50:37;24.20;;;22.77;;
13849;SDS011;6995;52.618;13.488;2022-07-17T02:53:03;19.90;;;18.60;;
13849;SDS011;6995;52.618;13.488;2022-07-17T02:55:28;21.47;;;20.13;;
13849;SDS011;6995;52.618;13.488;2022-07-17T02:57:54;20.07;;;19.00;;
13849;SDS011;6995;52.618;13.488;2022-07-17T03:00:20;22.80;;;21.27;;
13849;SDS011;6995;52.618;13.488;2022-07-17T03:02:46;19.57;;;18.37;;
13849;SDS011;6995;52.618;13.488;2022-07-17T03:05:13;21.17;;;19.87;;
13849;SDS011;6995;52.618;13.488;2022-07-17T03:07:40;22.60;;;21.20;;
13849;SDS011;6995;52.618;13.488;2022-07-17T03:10:06;19.70;;;18.30;;
13849;SDS011;6995;52.618;13.488;2022-07-17T03:12:32;21.47;;;19.77;;
13849;SDS011;6995;52.618;13.488;2022-07-17T03:14:58;22.00;;;20.23;;
13849;SDS011;6995;52.618;13.488;2022-07-17T03:17:24;21.40;;;19.63;;
13849;SDS011;6995;52.618;13.488;2022-07-17T03:19:49;20.73;;;18.87;;
13849;SDS011;6995;52.618;13.488;2022-07-17T03:22:15;21.90;;;20.23;;
13849;SDS011;6995;52.618;13.488;2022-07-17T03:24:41;21.77;;;20.13;;
13849;SDS011;6995;52.618;13.488;2022-07-17T03:27:06;21.50;;;20.10;;
13849;SDS011;6995;52.618;13.488;2022-07-17T03:29:32;20.23;;;19.07;;
13849;SDS011;6995;52.618;13.488;2022-07-17T03:34:31;20.07;;;18.77;;
13849;SDS011;6995;52.618;13.488;2022-07-17T03:36:57;20.93;;;19.70;;
13849;SDS011;6995;52.618;13.488;2022-07-17T03:39:23;23.37;;;21.90;;
13849;SDS011;6995;52.618;13.488;2022-07-17T03:41:48;22.33;;;20.63;;
13849;SDS011;6995;52.618;13.488;2022-07-17T03:44:14;23.13;;;21.80;;
13849;SDS011;6995;52.618;13.488;2022-07-17T03:46:39;22.93;;;21.30;;
13849;SDS011;6995;52.618;13.488;2022-07-17T03:49:05;19.83;;;18.23;;
13849;SDS011;6995;52.618;13.488;2022-07-17T03:51:31;20.73;;;19.40;;
13849;SDS011;6995;52.618;13.488;2022-07-17T03:53:56;22.27;;;20.80;;
13849;SDS011;6995;52.618;13.488;2022-07-17T03:56:22;21.73;;;20.27;;
13849;SDS011;6995;52.618;13.488;2022-07-17T03:58:48;21.17;;;19.87;;
13849;SDS011;6995;52.618;13.488;2022-07-17T04:01:14;22.87;;;21.43;;
13849;SDS011;6995;52.618;13.488;2022-07-17T04:03:40;22.13;;;20.23;;
13849;SDS011;6995;52.618;13.488;2022-07-17T04:06:05;21.17;;;19.57;;
13849;SDS011;6995;52.618;13.488;2022-07-17T04:08:31;21.83;;;20.27;;
13849;SDS011;6995;52.618;13.488;2022-07-17T04:10:57;21.23;;;19.77;;
13849;SDS011;6995;52.618;13.488;2022-07-17T04:13:23;21.90;;;20.63;;
13849;SDS011;6995;52.618;13.488;2022-07-17T04:15:49;21.43;;;19.70;;
13849;SDS011;6995;52.618;13.488;2022-07-17T04:18:15;21.83;;;20.43;;
13849;SDS011;6995;52.618;13.488;2022-07-17T04:20:41;20.27;;;18.83;;
13849;SDS011;6995;52.618;13.488;2022-07-17T04:23:07;21.43;;;20.20;;
13849;SDS011;6995;52.618;13.488;2022-07-17T04:25:33;20.67;;;19.27;;
13849;SDS011;6995;52.618;13.488;2022-07-17T04:27:58;20.17;;;18.83;;
13849;SDS011;6995;52.618;13.488;2022-07-17T04:30:24;20.57;;;19.33;;
13849;SDS011;6995;52.618;13.488;2022-07-17T04:32:50;18.63;;;17.23;;
13849;SDS011;6995;52.618;13.488;2022-07-17T04:35:15;19.63;;;18.43;;
13849;SDS011;6995;52.618;13.488;2022-07-17T04:37:41;20.53;;;18.83;;
13849;SDS011;6995;52.618;13.488;2022-07-17T04:40:07;20.87;;;19.27;;
13849;SDS011;6995;52.618;13.488;2022-07-17T04:42:33;21.10;;;19.33;;
13849;SDS011;6995;52.618;13.488;2022-07-17T04:44:59;19.80;;;18.70;;
13849;SDS011;6995;52.618;13.488;2022-07-17T04:47:25;21.07;;;19.93;;
13849;SDS011;6995;52.618;13.488;2022-07-17T04:49:50;19.03;;;17.93;;
13849;SDS011;6995;52.618;13.488;2022-07-17T04:52:16;21.87;;;20.60;;
13849;SDS011;6995;52.618;13.488;2022-07-17T04:54:41;20.73;;;19.33;;
13849;SDS011;6995;52.618;13.488;2022-07-17T04:57:07;23.37;;;21.67;;
13849;SDS011;6995;52.618;13.488;2022-07-17T04:59:33;21.87;;;20.57;;
13849;SDS011;6995;52.618;13.488;2022-07-17T05:01:58;24.10;;;22.67;;
13849;SDS011;6995;52.618;13.488;2022-07-17T05:04:24;23.07;;;21.70;;
13849;SDS011;6995;52.618;13.488;2022-07-17T05:06:50;23.67;;;22.37;;
13849;SDS011;6995;52.618;13.488;2022-07-17T05:09:15;22.67;;;21.13;;
13849;SDS011;6995;52.618;13.488;2022-07-17T05:11:41;23.90;;;21.90;;
13849;SDS011;6995;52.618;13.488;2022-07-17T05:14:06;21.53;;;20.10;;
13849;SDS011;6995;52.618;13.488;2022-07-17T05:16:32;21.63;;;20.33;;
13849;SDS011;6995;52.618;13.488;2022-07-17T05:18:58;20.83;;;19.38;;
13849;SDS011;6995;52.618;13.488;2022-07-17T05:21:23;18.33;;;17.03;;
13849;SDS011;6995;52.618;13.488;2022-07-17T05:23:49;21.92;;;20.73;;
13849;SDS011;6995;52.618;13.488;2022-07-17T05:26:15;21.83;;;20.43;;
13849;SDS011;6995;52.618;13.488;2022-07-17T05:28:40;20.60;;;19.07;;
13849;SDS011;6995;52.618;13.488;2022-07-17T05:31:06;19.17;;;17.97;;
13849;SDS011;6995;52.618;13.488;2022-07-17T05:33:32;20.43;;;18.97;;
13849;SDS011;6995;52.618;13.488;2022-07-17T05:35:58;19.47;;;18.40;;
13849;SDS011;6995;52.618;13.488;2022-07-17T05:38:24;20.55;;;19.25;;
13849;SDS011;6995;52.618;13.488;2022-07-17T05:40:49;21.13;;;19.77;;
13849;SDS011;6995;52.618;13.488;2022-07-17T05:43:15;18.93;;;17.67;;
13849;SDS011;6995;52.618;13.488;2022-07-17T05:45:40;20.98;;;19.40;;
13849;SDS011;6995;52.618;13.488;2022-07-17T05:48:06;19.60;;;18.13;;
13849;SDS011;6995;52.618;13.488;2022-07-17T05:50:32;22.92;;;21.15;;
13849;SDS011;6995;52.618;13.488;2022-07-17T05:52:58;21.23;;;20.02;;
13849;SDS011;6995;52.618;13.488;2022-07-17T05:55:24;22.00;;;20.70;;
13849;SDS011;6995;52.618;13.488;2022-07-17T05:57:50;21.13;;;19.88;;
13849;SDS011;6995;52.618;13.488;2022-07-17T06:00:16;22.50;;;21.05;;
13849;SDS011;6995;52.618;13.488;2022-07-17T06:02:41;20.75;;;19.58;;
13849;SDS011;6995;52.618;13.488;2022-07-17T06:05:07;20.02;;;18.80;;
13849;SDS011;6995;52.618;13.488;2022-07-17T06:07:33;20.73;;;19.52;;
13849;SDS011;6995;52.618;13.488;2022-07-17T06:09:59;22.27;;;21.02;;
13849;SDS011;6995;52.618;13.488;2022-07-17T06:12:24;20.25;;;18.85;;
13849;SDS011;6995;52.618;13.488;2022-07-17T06:14:50;20.70;;;19.50;;
13849;SDS011;6995;52.618;13.488;2022-07-17T06:17:15;20.52;;;19.48;;
13849;SDS011;6995;52.618;13.488;2022-07-17T06:19:41;20.50;;;19.23;;
13849;SDS011;6995;52.618;13.488;2022-07-17T06:22:07;20.90;;;19.45;;
13849;SDS011;6995;52.618;13.488;2022-07-17T06:24:32;21.40;;;20.20;;
13849;SDS011;6995;52.618;13.488;2022-07-17T06:26:58;20.35;;;18.98;;
13849;SDS011;6995;52.618;13.488;2022-07-17T06:29:23;23.08;;;21.70;;
13849;SDS011;6995;52.618;13.488;2022-07-17T06:31:49;21.60;;;20.27;;
13849;SDS011;6995;52.618;13.488;2022-07-17T06:34:15;24.38;;;22.90;;
13849;SDS011;6995;52.618;13.488;2022-07-17T06:36:40;23.75;;;22.55;;
13849;SDS011;6995;52.618;13.488;2022-07-17T06:39:06;26.20;;;24.38;;
13849;SDS011;6995;52.618;13.488;2022-07-17T06:41:31;26.52;;;25.13;;
13849;SDS011;6995;52.618;13.488;2022-07-17T06:43:57;20.35;;;19.02;;
13849;SDS011;6995;52.618;13.488;2022-07-17T06:46:23;18.63;;;17.20;;
13849;SDS011;6995;52.618;13.488;2022-07-17T06:48:48;18.73;;;17.33;;
13849;SDS011;6995;52.618;13.488;2022-07-17T06:51:16;18.30;;;17.10;;
13849;SDS011;6995;52.618;13.488;2022-07-17T06:53:42;20.45;;;19.35;;
13849;SDS011;6995;52.618;13.488;2022-07-17T06:56:08;20.65;;;19.27;;
13849;SDS011;6995;52.618;13.488;2022-07-17T06:58:34;21.23;;;20.23;;
13849;SDS011;6995;52.618;13.488;2022-07-17T07:01:00;18.77;;;17.25;;
13849;SDS011;6995;52.618;13.488;2022-07-17T07:03:25;18.63;;;17.42;;
13849;SDS011;6995;52.618;13.488;2022-07-17T07:05:51;18.50;;;17.52;;
13849;SDS011;6995;52.618;13.488;2022-07-17T07:08:17;19.23;;;17.92;;
13849;SDS011;6995;52.618;13.488;2022-07-17T07:10:42;21.30;;;20.17;;
13849;SDS011;6995;52.618;13.488;2022-07-17T07:13:09;22.35;;;21.00;;
13849;SDS011;6995;52.618;13.488;2022-07-17T07:15:35;18.88;;;17.75;;
13849;SDS011;6995;52.618;13.488;2022-07-17T07:18:00;19.77;;;18.77;;
13849;SDS011;6995;52.618;13.488;2022-07-17T07:20:26;19.08;;;17.63;;
13849;SDS011;6995;52.618;13.488;2022-07-17T07:22:52;19.83;;;18.48;;
13849;SDS011;6995;52.618;13.488;2022-07-17T07:25:17;23.52;;;22.08;;
13849;SDS011;6995;52.618;13.488;2022-07-17T07:27:43;19.65;;;18.30;;
13849;SDS011;6995;52.618;13.488;2022-07-17T07:30:09;20.27;;;18.83;;
13849;SDS011;6995;52.618;13.488;2022-07-17T07:32:38;20.42;;;19.17;;
13849;SDS011;6995;52.618;13.488;2022-07-17T07:35:05;22.25;;;21.00;;
13849;SDS011;6995;52.618;13.488;2022-07-17T07:37:32;21.98;;;20.85;;
13849;SDS011;6995;52.618;13.488;2022-07-17T07:39:58;21.88;;;20.63;;
13849;SDS011;6995;52.618;13.488;2022-07-17T07:42:24;23.20;;;21.60;;
13849;SDS011;6995;52.618;13.488;2022-07-17T07:44:50;21.38;;;20.25;;
13849;SDS011;6995;52.618;13.488;2022-07-17T07:47:17;20.02;;;18.75;;
13849;SDS011;6995;52.618;13.488;2022-07-17T07:49:43;21.20;;;19.85;;
13849;SDS011;6995;52.618;13.488;2022-07-17T07:52:08;21.10;;;19.67;;
13849;SDS011;6995;52.618;13.488;2022-07-17T07:54:34;21.98;;;20.48;;
13849;SDS011;6995;52.618;13.488;2022-07-17T07:57:01;20.75;;;19.45;;
13849;SDS011;6995;52.618;13.488;2022-07-17T07:59:27;20.80;;;19.52;;
13849;SDS011;6995;52.618;13.488;2022-07-17T08:01:53;18.73;;;17.30;;
13849;SDS011;6995;52.618;13.488;2022-07-17T08:04:19;19.65;;;18.50;;
13849;SDS011;6995;52.618;13.488;2022-07-17T08:06:44;18.63;;;17.65;;
13849;SDS011;6995;52.618;13.488;2022-07-17T08:09:10;21.02;;;19.63;;
13849;SDS011;6995;52.618;13.488;2022-07-17T08:11:36;20.77;;;19.73;;
13849;SDS011;6995;52.618;13.488;2022-07-17T08:14:02;20.27;;;19.05;;
13849;SDS011;6995;52.618;13.488;2022-07-17T08:16:27;18.00;;;16.67;;
13849;SDS011;6995;52.618;13.488;2022-07-17T08:18:53;20.30;;;19.00;;
13849;SDS011;6995;52.618;13.488;2022-07-17T08:21:19;18.40;;;17.33;;
13849;SDS011;6995;52.618;13.488;2022-07-17T08:23:46;19.25;;;17.85;;
13849;SDS011;6995;52.618;13.488;2022-07-17T08:26:12;21.45;;;20.00;;
13849;SDS011;6995;52.618;13.488;2022-07-17T08:28:37;17.05;;;16.15;;
13849;SDS011;6995;52.618;13.488;2022-07-17T08:31:03;19.92;;;18.52;;
13849;SDS011;6995;52.618;13.488;2022-07-17T08:33:29;18.88;;;17.60;;
13849;SDS011;6995;52.618;13.488;2022-07-17T08:35:54;19.63;;;18.33;;
13849;SDS011;6995;52.618;13.488;2022-07-17T08:38:20;20.58;;;19.58;;
13849;SDS011;6995;52.618;13.488;2022-07-17T08:40:45;17.88;;;16.90;;
13849;SDS011;6995;52.618;13.488;2022-07-17T08:43:14;19.90;;;18.30;;
13849;SDS011;6995;52.618;13.488;2022-07-17T08:45:40;19.50;;;18.13;;
13849;SDS011;6995;52.618;13.488;2022-07-17T08:48:06;18.55;;;17.35;;
13849;SDS011;6995;52.618;13.488;2022-07-17T08:50:36;19.50;;;18.02;;
13849;SDS011;6995;52.618;13.488;2022-07-17T08:53:02;18.70;;;17.40;;
13849;SDS011;6995;52.618;13.488;2022-07-17T08:55:29;17.98;;;16.48;;
13849;SDS011;6995;52.618;13.488;2022-07-17T08:57:55;18.08;;;16.98;;
13849;SDS011;6995;52.618;13.488;2022-07-17T09:00:21;19.80;;;18.38;;
13849;SDS011;6995;52.618;13.488;2022-07-17T09:03:06;18.23;;;17.02;;
13849;SDS011;6995;52.618;13.488;2022-07-17T09:05:38;18.02;;;17.02;;
13849;SDS011;6995;52.618;13.488;2022-07-17T09:08:06;17.52;;;16.38;;
13849;SDS011;6995;52.618;13.488;2022-07-17T09:13:00;19.55;;;17.92;;
13849;SDS011;6995;52.618;13.488;2022-07-17T09:15:27;20.40;;;18.90;;
13849;SDS011;6995;52.618;13.488;2022-07-17T09:17:54;18.50;;;17.30;;
13849;SDS011;6995;52.618;13.488;2022-07-17T09:20:21;20.67;;;19.50;;
13849;SDS011;6995;52.618;13.488;2022-07-17T09:23:01;19.65;;;17.98;;
13849;SDS011;6995;52.618;13.488;2022-07-17T09:25:36;19.35;;;17.95;;
13849;SDS011;6995;52.618;13.488;2022-07-17T09:28:07;20.70;;;19.52;;
13849;SDS011;6995;52.618;13.488;2022-07-17T09:30:36;18.10;;;17.00;;
13849;SDS011;6995;52.618;13.488;2022-07-17T09:33:04;19.80;;;18.77;;
13849;SDS011;6995;52.618;13.488;2022-07-17T09:35:43;18.13;;;17.05;;
13849;SDS011;6995;52.618;13.488;2022-07-17T09:43:41;17.80;;;16.67;;
13849;SDS011;6995;52.618;13.488;2022-07-17T09:46:13;19.58;;;18.20;;
13849;SDS011;6995;52.618;13.488;2022-07-17T09:48:41;19.63;;;18.33;;
13849;SDS011;6995;52.618;13.488;2022-07-17T09:51:14;18.90;;;17.58;;
13849;SDS011;6995;52.618;13.488;2022-07-17T09:53:41;18.70;;;17.23;;
13849;SDS011;6995;52.618;13.488;2022-07-17T09:56:09;18.90;;;17.27;;
13849;SDS011;6995;52.618;13.488;2022-07-17T09:58:36;17.95;;;16.95;;
13849;SDS011;6995;52.618;13.488;2022-07-17T10:01:06;20.20;;;18.83;;
13849;SDS011;6995;52.618;13.488;2022-07-17T10:03:32;20.67;;;19.42;;
13849;SDS011;6995;52.618;13.488;2022-07-17T10:05:58;18.75;;;17.45;;
13849;SDS011;6995;52.618;13.488;2022-07-17T10:08:23;19.33;;;18.23;;
13849;SDS011;6995;52.618;13.488;2022-07-17T10:10:50;21.17;;;19.73;;
13849;SDS011;6995;52.618;13.488;2022-07-17T10:13:16;19.10;;;17.55;;
13849;SDS011;6995;52.618;13.488;2022-07-17T10:15:42;19.40;;;18.25;;
13849;SDS011;6995;52.618;13.488;2022-07-17T10:18:08;21.02;;;19.73;;
13849;SDS011;6995;52.618;13.488;2022-07-17T10:20:33;19.50;;;18.10;;
13849;SDS011;6995;52.618;13.488;2022-07-17T10:22:59;19.23;;;17.95;;
13849;SDS011;6995;52.618;13.488;2022-07-17T10:25:35;19.83;;;18.50;;
13849;SDS011;6995;52.618;13.488;2022-07-17T10:28:01;18.17;;;16.98;;
13849;SDS011;6995;52.618;13.488;2022-07-17T10:30:28;19.92;;;18.73;;
13849;SDS011;6995;52.618;13.488;2022-07-17T10:33:15;19.00;;;17.70;;
13849;SDS011;6995;52.618;13.488;2022-07-17T10:35:46;18.70;;;17.42;;
13849;SDS011;6995;52.618;13.488;2022-07-17T10:38:13;20.45;;;19.20;;
13849;SDS011;6995;52.618;13.488;2022-07-17T10:40:40;19.70;;;18.50;;
13849;SDS011;6995;52.618;13.488;2022-07-17T10:43:07;20.17;;;18.88;;
13849;SDS011;6995;52.618;13.488;2022-07-17T10:45:35;19.42;;;18.08;;
13849;SDS011;6995;52.618;13.488;2022-07-17T10:48:07;19.65;;;18.35;;
13849;SDS011;6995;52.618;13.488;2022-07-17T10:50:47;19.50;;;18.40;;
13849;SDS011;6995;52.618;13.488;2022-07-17T10:58:28;20.60;;;19.08;;
13849;SDS011;6995;52.618;13.488;2022-07-17T11:03:31;18.25;;;17.33;;
13849;SDS011;6995;52.618;13.488;2022-07-17T11:06:21;18.35;;;17.13;;
13849;SDS011;6995;52.618;13.488;2022-07-17T11:08:50;18.13;;;17.23;;
13849;SDS011;6995;52.618;13.488;2022-07-17T11:11:22;18.73;;;17.52;;
13849;SDS011;6995;52.618;13.488;2022-07-17T11:14:12;19.48;;;18.40;;
13849;SDS011;6995;52.618;13.488;2022-07-17T11:16:48;19.63;;;18.45;;
13849;SDS011;6995;52.618;13.488;2022-07-17T11:19:29;21.08;;;19.63;;
13849;SDS011;6995;52.618;13.488;2022-07-17T11:21:57;22.00;;;20.38;;
13849;SDS011;6995;52.618;13.488;2022-07-17T11:24:24;20.90;;;19.50;;
13849;SDS011;6995;52.618;13.488;2022-07-17T11:26:51;20.45;;;19.30;;
13849;SDS011;6995;52.618;13.488;2022-07-17T11:29:17;19.60;;;18.50;;
13849;SDS011;6995;52.618;13.488;2022-07-17T11:31:43;19.58;;;18.42;;
13849;SDS011;6995;52.618;13.488;2022-07-17T11:34:10;21.38;;;19.83;;
13849;SDS011;6995;52.618;13.488;2022-07-17T11:36:40;19.92;;;18.90;;
13849;SDS011;6995;52.618;13.488;2022-07-17T11:39:12;20.05;;;18.75;;
13849;SDS011;6995;52.618;13.488;2022-07-17T11:41:45;19.95;;;18.52;;
13849;SDS011;6995;52.618;13.488;2022-07-17T11:44:14;20.90;;;19.63;;
13849;SDS011;6995;52.618;13.488;2022-07-17T11:46:42;18.35;;;17.35;;
13849;SDS011;6995;52.618;13.488;2022-07-17T11:49:10;19.13;;;17.80;;
13849;SDS011;6995;52.618;13.488;2022-07-17T11:54:07;20.70;;;19.45;;
13849;SDS011;6995;52.618;13.488;2022-07-17T11:56:34;19.60;;;18.40;;
13849;SDS011;6995;52.618;13.488;2022-07-17T11:59:00;21.27;;;19.98;;
13849;SDS011;6995;52.618;13.488;2022-07-17T12:01:28;21.67;;;20.40;;
13849;SDS011;6995;52.618;13.488;2022-07-17T12:03:59;22.75;;;21.05;;
13849;SDS011;6995;52.618;13.488;2022-07-17T12:06:25;21.98;;;20.55;;
13849;SDS011;6995;52.618;13.488;2022-07-17T12:08:52;20.67;;;19.48;;
13849;SDS011;6995;52.618;13.488;2022-07-17T12:11:18;22.08;;;20.88;;
13849;SDS011;6995;52.618;13.488;2022-07-17T12:13:44;20.05;;;18.60;;
13849;SDS011;6995;52.618;13.488;2022-07-17T12:16:25;21.33;;;19.92;;
13849;SDS011;6995;52.618;13.488;2022-07-17T12:21:44;21.05;;;19.88;;
13849;SDS011;6995;52.618;13.488;2022-07-17T12:24:20;20.70;;;19.30;;
13849;SDS011;6995;52.618;13.488;2022-07-17T12:26:50;19.75;;;18.33;;
13849;SDS011;6995;52.618;13.488;2022-07-17T12:29:16;20.25;;;18.92;;
13849;SDS011;6995;52.618;13.488;2022-07-17T12:31:43;18.77;;;17.48;;
13849;SDS011;6995;52.618;13.488;2022-07-17T12:34:09;19.83;;;18.83;;
13849;SDS011;6995;52.618;13.488;2022-07-17T12:36:34;19.33;;;17.95;;
13849;SDS011;6995;52.618;13.488;2022-07-17T12:39:00;18.40;;;17.25;;
13849;SDS011;6995;52.618;13.488;2022-07-17T12:41:26;17.83;;;16.85;;
13849;SDS011;6995;52.618;13.488;2022-07-17T12:43:51;17.50;;;16.50;;
13849;SDS011;6995;52.618;13.488;2022-07-17T12:46:17;19.05;;;17.77;;
13849;SDS011;6995;52.618;13.488;2022-07-17T12:48:43;17.02;;;16.02;;
13849;SDS011;6995;52.618;13.488;2022-07-17T12:51:10;16.65;;;15.60;;
13849;SDS011;6995;52.618;13.488;2022-07-17T12:53:40;18.13;;;16.98;;
13849;SDS011;6995;52.618;13.488;2022-07-17T12:56:07;18.95;;;17.92;;
13849;SDS011;6995;52.618;13.488;2022-07-17T12:58:35;17.48;;;16.48;;
13849;SDS011;6995;52.618;13.488;2022-07-17T13:01:02;19.60;;;18.40;;
13849;SDS011;6995;52.618;13.488;2022-07-17T13:03:29;20.38;;;19.15;;
13849;SDS011;6995;52.618;13.488;2022-07-17T13:05:55;19.30;;;18.13;;
13849;SDS011;6995;52.618;13.488;2022-07-17T13:08:21;19.63;;;18.38;;
13849;SDS011;6995;52.618;13.488;2022-07-17T13:10:47;16.83;;;15.82;;
13849;SDS011;6995;52.618;13.488;2022-07-17T13:13:12;17.38;;;16.17;;
13849;SDS011;6995;52.618;13.488;2022-07-17T13:15:39;17.02;;;15.82;;
13849;SDS011;6995;52.618;13.488;2022-07-17T13:18:05;26.33;;;23.98;;
13849;SDS011;6995;52.618;13.488;2022-07-17T13:20:31;16.55;;;15.48;;
13849;SDS011;6995;52.618;13.488;2022-07-17T13:22:56;15.50;;;14.55;;
13849;SDS011;6995;52.618;13.488;2022-07-17T13:25:22;16.48;;;15.57;;
13849;SDS011;6995;52.618;13.488;2022-07-17T13:27:48;15.45;;;14.52;;
13849;SDS011;6995;52.618;13.488;2022-07-17T13:30:14;17.70;;;16.50;;
13849;SDS011;6995;52.618;13.488;2022-07-17T13:32:39;16.75;;;15.55;;
13849;SDS011;6995;52.618;13.488;2022-07-17T13:35:05;16.15;;;15.02;;
13849;SDS011;6995;52.618;13.488;2022-07-17T13:37:31;16.27;;;15.38;;
13849;SDS011;6995;52.618;13.488;2022-07-17T13:39:57;17.77;;;16.65;;
13849;SDS011;6995;52.618;13.488;2022-07-17T13:42:23;17.33;;;16.25;;
13849;SDS011;6995;52.618;13.488;2022-07-17T13:44:49;17.23;;;16.08;;
13849;SDS011;6995;52.618;13.488;2022-07-17T13:47:15;18.42;;;17.13;;
13849;SDS011;6995;52.618;13.488;2022-07-17T13:49:41;17.42;;;16.42;;
13849;SDS011;6995;52.618;13.488;2022-07-17T13:52:06;17.98;;;16.98;;
13849;SDS011;6995;52.618;13.488;2022-07-17T13:54:32;18.02;;;17.05;;
13849;SDS011;6995;52.618;13.488;2022-07-17T13:56:57;16.70;;;15.70;;
13849;SDS011;6995;52.618;13.488;2022-07-17T13:59:25;18.80;;;17.70;;
13849;SDS011;6995;52.618;13.488;2022-07-17T14:01:51;17.42;;;16.42;;
13849;SDS011;6995;52.618;13.488;2022-07-17T14:04:17;16.98;;;16.15;;
13849;SDS011;6995;52.618;13.488;2022-07-17T14:06:43;18.80;;;17.77;;
13849;SDS011;6995;52.618;13.488;2022-07-17T14:09:09;17.83;;;16.83;;
13849;SDS011;6995;52.618;13.488;2022-07-17T14:11:35;15.40;;;14.30;;
13849;SDS011;6995;52.618;13.488;2022-07-17T14:14:01;16.05;;;14.95;;
13849;SDS011;6995;52.618;13.488;2022-07-17T14:16:27;16.67;;;15.70;;
13849;SDS011;6995;52.618;13.488;2022-07-17T14:18:53;16.25;;;15.13;;
13849;SDS011;6995;52.618;13.488;2022-07-17T14:21:26;16.00;;;14.93;;
13849;SDS011;6995;52.618;13.488;2022-07-17T14:23:53;15.35;;;14.45;;
13849;SDS011;6995;52.618;13.488;2022-07-17T14:26:19;16.75;;;15.68;;
13849;SDS011;6995;52.618;13.488;2022-07-17T14:28:44;15.90;;;15.07;;
13849;SDS011;6995;52.618;13.488;2022-07-17T14:31:10;17.85;;;16.73;;
13849;SDS011;6995;52.618;13.488;2022-07-17T14:33:36;15.82;;;14.93;;
13849;SDS011;6995;52.618;13.488;2022-07-17T14:36:01;14.80;;;13.93;;
13849;SDS011;6995;52.618;13.488;2022-07-17T14:38:27;15.55;;;14.50;;
13849;SDS011;6995;52.618;13.488;2022-07-17T14:40:52;16.33;;;15.48;;
13849;SDS011;6995;52.618;13.488;2022-07-17T14:43:18;16.60;;;15.60;;